sensor_id;sensor_type;location;lat;lon;timestamp;pressure;altitude;pressure_sealevel;temperature;humidity
71774;BME280;59607;52.130;5.430;2023-04-28T00:00:48;101513.72;;;9.32;57.09
71774;BME280;59607;52.130;5.430;2023-04-28T00:03:15;101514.53;;;9.33;57.12
71774;BME280;59607;52.130;5.430;2023-04-28T00:05:47;101525.13;;;9.31;56.97
71774;BME280;59607;52.130;5.430;2023-04-28T00:08:15;101525.28;;;9.30;56.82
71774;BME280;59607;52.130;5.430;2023-04-28T00:10:44;101527.88;;;9.30;56.99
71774;BME280;59607;52.130;5.430;2023-04-28T00:13:14;101510.53;;;9.29;56.92
71774;BME280;59607;52.130;5.430;2023-04-28T00:15:44;101504.59;;;9.26;57.38
71774;BME280;59607;52.130;5.430;2023-04-28T00:18:14;101496.91;;;9.25;56.94
71774;BME280;59607;52.130;5.430;2023-04-28T00:20:40;101499.78;;;9.22;56.83
71774;BME280;59607;52.130;5.430;2023-04-28T00:23:16;101495.38;;;9.22;57.10
71774;BME280;59607;52.130;5.430;2023-04-28T00:25:42;101482.56;;;9.19;57.12
71774;BME280;59607;52.130;5.430;2023-04-28T00:28:08;101471.28;;;9.19;57.13
71774;BME280;59607;52.130;5.430;2023-04-28T00:30:35;101472.25;;;9.18;57.21
71774;BME280;59607;52.130;5.430;2023-04-28T00:33:10;101466.47;;;9.14;57.42
71774;BME280;59607;52.130;5.430;2023-04-28T00:35:36;101459.56;;;9.13;57.31
71774;BME280;59607;52.130;5.430;2023-04-28T00:38:09;101455.16;;;9.13;57.77
71774;BME280;59607;52.130;5.430;2023-04-28T00:40:37;101456.00;;;9.14;57.59
71774;BME280;59607;52.130;5.430;2023-04-28T00:43:06;101459.72;;;9.11;57.70
71774;BME280;59607;52.130;5.430;2023-04-28T00:45:33;101459.44;;;9.15;57.48
71774;BME280;59607;52.130;5.430;2023-04-28T00:48:06;101464.53;;;9.16;57.33
71774;BME280;59607;52.130;5.430;2023-04-28T00:50:35;101461.22;;;9.14;57.45
71774;BME280;59607;52.130;5.430;2023-04-28T00:53:01;101458.59;;;9.14;57.64
71774;BME280;59607;52.130;5.430;2023-04-28T00:55:30;101452.66;;;9.12;57.89
71774;BME280;59607;52.130;5.430;2023-04-28T00:58:01;101454.47;;;9.11;57.61
71774;BME280;59607;52.130;5.430;2023-04-28T01:00:27;101450.19;;;9.10;57.57
71774;BME280;59607;52.130;5.430;2023-04-28T01:02:59;101444.97;;;9.10;57.87
71774;BME280;59607;52.130;5.430;2023-04-28T01:05:28;101435.31;;;9.11;58.04
71774;BME280;59607;52.130;5.430;2023-04-28T01:08:32;101431.19;;;9.08;57.89
71774;BME280;59607;52.130;5.430;2023-04-28T01:11:18;101435.47;;;9.09;57.92
71774;BME280;59607;52.130;5.430;2023-04-28T01:13:44;101430.22;;;9.09;57.99
71774;BME280;59607;52.130;5.430;2023-04-28T01:16:11;101435.31;;;9.11;58.15
71774;BME280;59607;52.130;5.430;2023-04-28T01:18:42;101430.94;;;9.11;58.02
71774;BME280;59607;52.130;5.430;2023-04-28T01:21:13;101434.50;;;9.10;58.65
71774;BME280;59607;52.130;5.430;2023-04-28T01:23:45;101430.09;;;9.11;57.97
71774;BME280;59607;52.130;5.430;2023-04-28T01:26:11;101422.53;;;9.08;58.16
71774;BME280;59607;52.130;5.430;2023-04-28T01:28:38;101420.59;;;9.10;58.70
71774;BME280;59607;52.130;5.430;2023-04-28T01:31:07;101427.34;;;9.12;58.62
71774;BME280;59607;52.130;5.430;2023-04-28T01:33:35;101418.50;;;9.13;58.90
71774;BME280;59607;52.130;5.430;2023-04-28T01:36:02;101421.25;;;9.12;58.92
71774;BME280;59607;52.130;5.430;2023-04-28T01:38:28;101416.03;;;9.12;58.95
71774;BME280;59607;52.130;5.430;2023-04-28T01:41:00;101410.25;;;9.08;58.73
71774;BME280;59607;52.130;5.430;2023-04-28T01:43:28;101411.06;;;9.09;58.88
71774;BME280;59607;52.130;5.430;2023-04-28T01:45:57;101395.66;;;9.06;58.87
71774;BME280;59607;52.130;5.430;2023-04-28T01:48:23;101396.91;;;9.01;58.99
71774;BME280;59607;52.130;5.430;2023-04-28T01:50:50;101399.66;;;9.00;58.93
71774;BME280;59607;52.130;5.430;2023-04-28T01:53:22;101386.59;;;9.00;59.02
71774;BME280;59607;52.130;5.430;2023-04-28T01:55:49;101385.88;;;8.98;59.06
71774;BME280;59607;52.130;5.430;2023-04-28T01:58:15;101382.56;;;8.96;59.22
71774;BME280;59607;52.130;5.430;2023-04-28T02:00:45;101387.81;;;8.96;59.44
71774;BME280;59607;52.130;5.430;2023-04-28T02:03:15;101388.78;;;8.95;59.50
71774;BME280;59607;52.130;5.430;2023-04-28T02:05:59;101380.25;;;8.93;59.09
71774;BME280;59607;52.130;5.430;2023-04-28T02:08:26;101373.38;;;8.92;59.22
71774;BME280;59607;52.130;5.430;2023-04-28T02:10:57;101379.53;;;8.91;59.68
71774;BME280;59607;52.130;5.430;2023-04-28T02:13:24;101371.03;;;8.88;59.42
71774;BME280;59607;52.130;5.430;2023-04-28T02:15:54;101381.34;;;8.90;59.45
71774;BME280;59607;52.130;5.430;2023-04-28T02:18:21;101381.34;;;8.90;59.72
71774;BME280;59607;52.130;5.430;2023-04-28T02:20:47;101371.56;;;8.92;59.71
71774;BME280;59607;52.130;5.430;2023-04-28T02:23:17;101371.56;;;8.92;59.92
71774;BME280;59607;52.130;5.430;2023-04-28T02:26:00;101361.22;;;8.91;59.74
71774;BME280;59607;52.130;5.430;2023-04-28T02:28:26;101359.44;;;8.91;59.75
71774;BME280;59607;52.130;5.430;2023-04-28T02:31:02;101351.47;;;8.93;59.75
71774;BME280;59607;52.130;5.430;2023-04-28T02:33:32;101346.38;;;8.91;59.89
71774;BME280;59607;52.130;5.430;2023-04-28T02:35:59;101339.50;;;8.90;60.09
71774;BME280;59607;52.130;5.430;2023-04-28T02:38:28;101337.81;;;8.89;59.99
71774;BME280;59607;52.130;5.430;2023-04-28T02:41:02;101341.41;;;8.88;59.77
71774;BME280;59607;52.130;5.430;2023-04-28T02:43:30;101339.63;;;8.88;59.79
71774;BME280;59607;52.130;5.430;2023-04-28T02:45:57;101339.22;;;8.93;59.98
71774;BME280;59607;52.130;5.430;2023-04-28T02:48:24;101332.06;;;8.95;59.85
71774;BME280;59607;52.130;5.430;2023-04-28T02:50:51;101322.81;;;8.91;59.69
71774;BME280;59607;52.130;5.430;2023-04-28T02:53:21;101316.38;;;8.85;59.84
71774;BME280;59607;52.130;5.430;2023-04-28T02:55:48;101327.63;;;8.86;60.25
71774;BME280;59607;52.130;5.430;2023-04-28T02:58:14;101317.88;;;8.88;60.00
71774;BME280;59607;52.130;5.430;2023-04-28T03:00:54;101300.41;;;8.88;60.18
71774;BME280;59607;52.130;5.430;2023-04-28T03:03:23;101298.06;;;8.85;60.04
71774;BME280;59607;52.130;5.430;2023-04-28T03:05:52;101296.38;;;8.84;60.55
71774;BME280;59607;52.130;5.430;2023-04-28T03:08:26;101297.50;;;8.82;60.31
71774;BME280;59607;52.130;5.430;2023-04-28T03:11:00;101296.81;;;8.80;60.67
71774;BME280;59607;52.130;5.430;2023-04-28T03:13:40;101295.72;;;8.82;61.02
71774;BME280;59607;52.130;5.430;2023-04-28T03:16:07;101291.16;;;8.84;60.71
71774;BME280;59607;52.130;5.430;2023-04-28T03:18:36;101280.84;;;8.83;60.72
71774;BME280;59607;52.130;5.430;2023-04-28T03:21:03;101279.91;;;8.84;60.87
71774;BME280;59607;52.130;5.430;2023-04-28T03:23:35;101280.84;;;8.83;60.67
71774;BME280;59607;52.130;5.430;2023-04-28T03:26:04;101280.28;;;8.79;61.00
71774;BME280;59607;52.130;5.430;2023-04-28T03:28:30;101283.44;;;8.83;61.25
71774;BME280;59607;52.130;5.430;2023-04-28T03:30:59;101277.13;;;8.85;60.75
71774;BME280;59607;52.130;5.430;2023-04-28T03:33:30;101272.84;;;8.84;60.79
71774;BME280;59607;52.130;5.430;2023-04-28T03:36:06;101263.22;;;8.85;61.27
71774;BME280;59607;52.130;5.430;2023-04-28T03:38:32;101257.28;;;8.83;61.13
71774;BME280;59607;52.130;5.430;2023-04-28T03:41:02;101254.03;;;8.81;60.92
71774;BME280;59607;52.130;5.430;2023-04-28T03:43:34;101251.66;;;8.77;61.14
71774;BME280;59607;52.130;5.430;2023-04-28T03:46:05;101255.38;;;8.75;61.65
71774;BME280;59607;52.130;5.430;2023-04-28T03:48:33;101258.56;;;8.79;61.40
71774;BME280;59607;52.130;5.430;2023-04-28T03:50:59;101258.56;;;8.79;61.33
71774;BME280;59607;52.130;5.430;2023-04-28T03:53:28;101256.75;;;8.79;62.00
71774;BME280;59607;52.130;5.430;2023-04-28T03:56:02;101254.81;;;8.81;62.01
71774;BME280;59607;52.130;5.430;2023-04-28T03:58:34;101250.56;;;8.80;62.13
71774;BME280;59607;52.130;5.430;2023-04-28T04:01:04;101254.13;;;8.79;62.19
71774;BME280;59607;52.130;5.430;2023-04-28T04:03:34;101248.22;;;8.77;62.33
71774;BME280;59607;52.130;5.430;2023-04-28T04:06:07;101239.41;;;8.78;62.48
71774;BME280;59607;52.130;5.430;2023-04-28T04:08:33;101245.47;;;8.79;62.35
71774;BME280;59607;52.130;5.430;2023-04-28T04:11:06;101234.31;;;8.76;62.27
71774;BME280;59607;52.130;5.430;2023-04-28T04:13:33;101226.63;;;8.75;62.57
71774;BME280;59607;52.130;5.430;2023-04-28T04:16:03;101230.88;;;8.76;62.81
71774;BME280;59607;52.130;5.430;2023-04-28T04:18:30;101230.59;;;8.79;63.06
71774;BME280;59607;52.130;5.430;2023-04-28T04:20:56;101220.81;;;8.81;63.08
71774;BME280;59607;52.130;5.430;2023-04-28T04:23:23;101215.59;;;8.81;63.48
71774;BME280;59607;52.130;5.430;2023-04-28T04:25:54;101210.34;;;8.81;63.23
71774;BME280;59607;52.130;5.430;2023-04-28T04:28:21;101214.22;;;8.87;63.47
71774;BME280;59607;52.130;5.430;2023-04-28T04:30:48;101217.50;;;8.89;63.18
71774;BME280;59607;52.130;5.430;2023-04-28T04:33:31;101217.50;;;8.89;63.10
71774;BME280;59607;52.130;5.430;2023-04-28T04:36:03;101214.06;;;8.88;63.13
71774;BME280;59607;52.130;5.430;2023-04-28T04:38:30;101216.41;;;8.92;63.32
71774;BME280;59607;52.130;5.430;2023-04-28T04:41:12;101197.66;;;8.96;63.71
71774;BME280;59607;52.130;5.430;2023-04-28T04:43:40;101200.28;;;8.96;63.66
71774;BME280;59607;52.130;5.430;2023-04-28T04:46:18;101193.41;;;8.95;63.74
71774;BME280;59607;52.130;5.430;2023-04-28T04:48:48;101196.13;;;8.94;63.62
71774;BME280;59607;52.130;5.430;2023-04-28T04:51:14;101199.00;;;9.00;63.67
71774;BME280;59607;52.130;5.430;2023-04-28T04:53:41;101193.63;;;9.02;63.85
71774;BME280;59607;52.130;5.430;2023-04-28T04:56:07;101196.78;;;9.06;64.18
71774;BME280;59607;52.130;5.430;2023-04-28T04:58:38;101193.06;;;9.08;64.67
71774;BME280;59607;52.130;5.430;2023-04-28T05:01:04;101188.66;;;9.09;64.76
71774;BME280;59607;52.130;5.430;2023-04-28T05:03:36;101178.03;;;9.10;64.42
71774;BME280;59607;52.130;5.430;2023-04-28T05:06:03;101178.03;;;9.10;64.70
71774;BME280;59607;52.130;5.430;2023-04-28T05:08:30;101175.81;;;9.16;64.78
71774;BME280;59607;52.130;5.430;2023-04-28T05:11:00;101173.88;;;9.18;64.88
71774;BME280;59607;52.130;5.430;2023-04-28T05:13:26;101184.72;;;9.23;64.85
71774;BME280;59607;52.130;5.430;2023-04-28T05:15:53;101180.72;;;9.29;65.05
71774;BME280;59607;52.130;5.430;2023-04-28T05:18:20;101178.09;;;9.29;64.91
71774;BME280;59607;52.130;5.430;2023-04-28T05:20:54;101177.28;;;9.28;64.96
71774;BME280;59607;52.130;5.430;2023-04-28T05:23:21;101178.09;;;9.29;65.20
71774;BME280;59607;52.130;5.430;2023-04-28T05:25:49;101182.34;;;9.30;65.07
71774;BME280;59607;52.130;5.430;2023-04-28T05:28:15;101177.28;;;9.28;65.38
71774;BME280;59607;52.130;5.430;2023-04-28T05:30:42;101178.78;;;9.31;65.71
71774;BME280;59607;52.130;5.430;2023-04-28T05:33:15;101181.25;;;9.32;66.06
71774;BME280;59607;52.130;5.430;2023-04-28T05:35:41;101185.50;;;9.33;66.00
71774;BME280;59607;52.130;5.430;2023-04-28T05:38:15;101185.38;;;9.35;66.31
71774;BME280;59607;52.130;5.430;2023-04-28T05:40:42;101198.00;;;9.40;67.29
71774;BME280;59607;52.130;5.430;2023-04-28T05:43:14;101191.38;;;9.45;68.10
71774;BME280;59607;52.130;5.430;2023-04-28T05:45:40;101189.81;;;9.53;70.25
71774;BME280;59607;52.130;5.430;2023-04-28T05:48:07;101183.78;;;9.52;72.22
71774;BME280;59607;52.130;5.430;2023-04-28T05:50:39;101182.16;;;9.41;72.51
71774;BME280;59607;52.130;5.430;2023-04-28T05:53:09;101185.38;;;9.35;74.47
71774;BME280;59607;52.130;5.430;2023-04-28T05:55:42;101184.28;;;9.37;75.71
71774;BME280;59607;52.130;5.430;2023-04-28T05:58:10;101182.47;;;9.38;77.45
71774;BME280;59607;52.130;5.430;2023-04-28T06:00:38;101188.13;;;9.33;79.86
71774;BME280;59607;52.130;5.430;2023-04-28T06:03:20;101191.00;;;9.40;81.43
71774;BME280;59607;52.130;5.430;2023-04-28T06:05:53;101191.69;;;9.42;83.91
71774;BME280;59607;52.130;5.430;2023-04-28T06:08:20;101192.72;;;9.49;88.59
71774;BME280;59607;52.130;5.430;2023-04-28T06:10:47;101193.13;;;9.55;90.78
71774;BME280;59607;52.130;5.430;2023-04-28T06:13:16;101189.22;;;9.59;88.71
71774;BME280;59607;52.130;5.430;2023-04-28T06:15:43;101176.03;;;9.50;88.35
71774;BME280;59607;52.130;5.430;2023-04-28T06:18:12;101171.09;;;9.47;88.12
71774;BME280;59607;52.130;5.430;2023-04-28T06:20:43;101159.53;;;9.50;89.90
71774;BME280;59607;52.130;5.430;2023-04-28T06:23:13;101156.47;;;9.55;90.51
71774;BME280;59607;52.130;5.430;2023-04-28T06:25:44;101150.53;;;9.53;88.67
71774;BME280;59607;52.130;5.430;2023-04-28T06:28:11;101151.66;;;9.50;89.83
71774;BME280;59607;52.130;5.430;2023-04-28T06:30:50;101157.28;;;9.55;88.10
71774;BME280;59607;52.130;5.430;2023-04-28T06:33:16;101147.84;;;9.62;87.93
71774;BME280;59607;52.130;5.430;2023-04-28T06:35:58;101148.16;;;9.78;87.54
71774;BME280;59607;52.130;5.430;2023-04-28T06:38:27;101146.22;;;9.98;88.84
71774;BME280;59607;52.130;5.430;2023-04-28T06:40:57;101145.97;;;10.09;88.65
71774;BME280;59607;52.130;5.430;2023-04-28T06:43:27;101149.66;;;10.17;90.15
71774;BME280;59607;52.130;5.430;2023-04-28T06:45:57;101138.25;;;10.26;90.34
71774;BME280;59607;52.130;5.430;2023-04-28T06:48:24;101137.63;;;10.32;89.91
71774;BME280;59607;52.130;5.430;2023-04-28T06:50:54;101140.53;;;10.47;90.18
71774;BME280;59607;52.130;5.430;2023-04-28T06:53:24;101149.13;;;10.58;91.33
71774;BME280;59607;52.130;5.430;2023-04-28T06:55:50;101132.94;;;10.71;91.16
71774;BME280;59607;52.130;5.430;2023-04-28T06:58:31;101133.31;;;10.76;92.63
71774;BME280;59607;52.130;5.430;2023-04-28T07:00:58;101132.47;;;10.76;92.23
71774;BME280;59607;52.130;5.430;2023-04-28T07:03:25;101129.69;;;10.77;92.85
71774;BME280;59607;52.130;5.430;2023-04-28T07:05:52;101126.47;;;10.83;92.63
71774;BME280;59607;52.130;5.430;2023-04-28T07:08:29;101120.91;;;10.86;95.52
71774;BME280;59607;52.130;5.430;2023-04-28T07:10:55;101111.44;;;11.02;95.19
71774;BME280;59607;52.130;5.430;2023-04-28T07:13:25;101121.16;;;11.10;95.78
71774;BME280;59607;52.130;5.430;2023-04-28T07:15:51;101119.03;;;11.14;95.92
71774;BME280;59607;52.130;5.430;2023-04-28T07:18:18;101125.91;;;11.15;95.65
71774;BME280;59607;52.130;5.430;2023-04-28T07:20:50;101127.56;;;11.24;95.50
71774;BME280;59607;52.130;5.430;2023-04-28T07:23:29;101125.94;;;11.23;97.79
71774;BME280;59607;52.130;5.430;2023-04-28T07:25:58;101124.19;;;11.40;98.09
71774;BME280;59607;52.130;5.430;2023-04-28T07:28:24;101133.38;;;11.44;97.69
71774;BME280;59607;52.130;5.430;2023-04-28T07:30:52;101129.94;;;11.52;97.61
71774;BME280;59607;52.130;5.430;2023-04-28T07:33:24;101130.13;;;11.59;97.60
71774;BME280;59607;52.130;5.430;2023-04-28T07:35:51;101130.47;;;11.72;98.53
71774;BME280;59607;52.130;5.430;2023-04-28T07:38:20;101127.50;;;11.92;97.89
71774;BME280;59607;52.130;5.430;2023-04-28T07:41:01;101135.06;;;11.95;97.13
71774;BME280;59607;52.130;5.430;2023-04-28T07:43:28;101131.28;;;11.90;97.70
71774;BME280;59607;52.130;5.430;2023-04-28T07:45:55;101126.19;;;11.88;97.66
71774;BME280;59607;52.130;5.430;2023-04-28T07:48:31;101115.53;;;11.98;98.18
71774;BME280;59607;52.130;5.430;2023-04-28T07:50:57;101111.59;;;12.19;97.96
71774;BME280;59607;52.130;5.430;2023-04-28T07:53:25;101119.28;;;12.37;97.14
71774;BME280;59607;52.130;5.430;2023-04-28T07:55:54;101108.88;;;12.52;95.96
71774;BME280;59607;52.130;5.430;2023-04-28T07:58:21;101104.88;;;12.73;94.35
71774;BME280;59607;52.130;5.430;2023-04-28T08:00:47;101102.75;;;12.68;94.94
71774;BME280;59607;52.130;5.430;2023-04-28T08:03:18;101106.31;;;12.84;93.75
71774;BME280;59607;52.130;5.430;2023-04-28T08:05:45;101112.00;;;12.96;94.75
71774;BME280;59607;52.130;5.430;2023-04-28T08:08:15;101109.69;;;13.01;94.26
71774;BME280;59607;52.130;5.430;2023-04-28T08:10:44;101112.00;;;12.96;94.44
71774;BME280;59607;52.130;5.430;2023-04-28T08:13:11;101101.03;;;12.92;95.22
71774;BME280;59607;52.130;5.430;2023-04-28T08:15:37;101096.38;;;12.94;96.07
71774;BME280;59607;52.130;5.430;2023-04-28T08:18:09;101091.97;;;12.87;96.92
71774;BME280;59607;52.130;5.430;2023-04-28T08:20:36;101101.09;;;12.76;96.58
71774;BME280;59607;52.130;5.430;2023-04-28T08:23:03;101108.84;;;12.69;98.14
71774;BME280;59607;52.130;5.430;2023-04-28T08:25:33;101111.28;;;12.70;100.00
71774;BME280;59607;52.130;5.430;2023-04-28T08:27:59;101110.81;;;12.67;99.99
71774;BME280;59607;52.130;5.430;2023-04-28T08:30:36;101115.81;;;12.53;100.00
71774;BME280;59607;52.130;5.430;2023-04-28T08:33:04;101122.72;;;12.46;100.00
71774;BME280;59607;52.130;5.430;2023-04-28T08:35:37;101118.47;;;12.37;100.00
71774;BME280;59607;52.130;5.430;2023-04-28T08:38:05;101117.16;;;12.41;100.00
71774;BME280;59607;52.130;5.430;2023-04-28T08:40:35;101107.94;;;12.37;100.00
71774;BME280;59607;52.130;5.430;2023-04-28T08:43:09;101102.84;;;12.35;100.00
71774;BME280;59607;52.130;5.430;2023-04-28T08:45:44;101106.75;;;12.56;100.00
71774;BME280;59607;52.130;5.430;2023-04-28T08:48:19;101105.81;;;12.89;100.00
71774;BME280;59607;52.130;5.430;2023-04-28T08:50:51;101101.63;;;13.03;100.00
71774;BME280;59607;52.130;5.430;2023-04-28T08:53:21;101107.00;;;13.10;100.00
71774;BME280;59607;52.130;5.430;2023-04-28T08:55:54;101105.00;;;13.20;100.00
71774;BME280;59607;52.130;5.430;2023-04-28T08:58:34;101099.34;;;13.31;100.00
71774;BME280;59607;52.130;5.430;2023-04-28T09:01:05;101105.88;;;13.36;100.00
71774;BME280;59607;52.130;5.430;2023-04-28T09:03:35;101101.63;;;13.35;100.00
71774;BME280;59607;52.130;5.430;2023-04-28T09:06:01;101102.00;;;13.23;100.00
71774;BME280;59607;52.130;5.430;2023-04-28T09:08:30;101106.06;;;13.34;100.00
71774;BME280;59607;52.130;5.430;2023-04-28T09:11:07;101098.50;;;13.31;100.00
71774;BME280;59607;52.130;5.430;2023-04-28T09:13:35;101086.72;;;13.18;100.00
71774;BME280;59607;52.130;5.430;2023-04-28T09:16:04;101089.03;;;13.22;100.00
71774;BME280;59607;52.130;5.430;2023-04-28T09:18:31;101092.84;;;13.11;100.00
71774;BME280;59607;52.130;5.430;2023-04-28T09:21:10;101091.91;;;13.03;100.00
71774;BME280;59607;52.130;5.430;2023-04-28T09:23:49;101092.25;;;13.00;100.00
71774;BME280;59607;52.130;5.430;2023-04-28T09:26:22;101092.78;;;12.95;100.00
71774;BME280;59607;52.130;5.430;2023-04-28T09:29:10;101089.00;;;12.90;100.00
71774;BME280;59607;52.130;5.430;2023-04-28T09:31:37;101092.25;;;13.00;100.00
71774;BME280;59607;52.130;5.430;2023-04-28T09:34:12;101098.22;;;12.94;100.00
71774;BME280;59607;52.130;5.430;2023-04-28T09:36:39;101101.03;;;12.92;100.00
71774;BME280;59607;52.130;5.430;2023-04-28T09:39:08;101102.31;;;12.96;100.00
71774;BME280;59607;52.130;5.430;2023-04-28T09:41:46;101099.81;;;13.03;100.00
71774;BME280;59607;52.130;5.430;2023-04-28T09:44:18;101094.38;;;13.05;100.00
71774;BME280;59607;52.130;5.430;2023-04-28T09:46:47;101092.03;;;13.10;100.00
71774;BME280;59607;52.130;5.430;2023-04-28T09:49:16;101085.59;;;13.13;100.00
71774;BME280;59607;52.130;5.430;2023-04-28T09:51:45;101082.44;;;13.17;100.00
71774;BME280;59607;52.130;5.430;2023-04-28T09:54:12;101080.94;;;13.23;100.00
71774;BME280;59607;52.130;5.430;2023-04-28T09:56:54;101078.59;;;13.28;100.00
71774;BME280;59607;52.130;5.430;2023-04-28T09:59:22;101072.81;;;13.33;100.00
71774;BME280;59607;52.130;5.430;2023-04-28T10:01:52;101076.66;;;13.45;100.00
71774;BME280;59607;52.130;5.430;2023-04-28T10:04:22;101070.22;;;13.48;100.00
71774;BME280;59607;52.130;5.430;2023-04-28T10:06:49;101075.22;;;13.43;100.00
71774;BME280;59607;52.130;5.430;2023-04-28T10:09:15;101069.66;;;13.38;100.00
71774;BME280;59607;52.130;5.430;2023-04-28T10:11:43;101067.75;;;13.47;100.00
71774;BME280;59607;52.130;5.430;2023-04-28T10:14:15;101073.69;;;13.49;100.00
71774;BME280;59607;52.130;5.430;2023-04-28T10:16:41;101072.06;;;13.48;100.00
71774;BME280;59607;52.130;5.430;2023-04-28T10:19:08;101069.09;;;13.51;100.00
71774;BME280;59607;52.130;5.430;2023-04-28T10:21:45;101072.03;;;13.56;100.00
71774;BME280;59607;52.130;5.430;2023-04-28T10:24:28;101068.38;;;13.57;100.00
71774;BME280;59607;52.130;5.430;2023-04-28T10:27:16;101066.22;;;13.61;100.00
71774;BME280;59607;52.130;5.430;2023-04-28T10:29:43;101073.66;;;13.57;100.00
71774;BME280;59607;52.130;5.430;2023-04-28T10:32:21;101073.84;;;13.55;100.00
71774;BME280;59607;52.130;5.430;2023-04-28T10:40:50;101071.41;;;13.69;100.00
71774;BME280;59607;52.130;5.430;2023-04-28T10:43:45;101071.50;;;13.76;100.00
71774;BME280;59607;52.130;5.430;2023-04-28T10:46:12;101070.97;;;13.80;100.00
71774;BME280;59607;52.130;5.430;2023-04-28T10:56:19;101071.50;;;14.14;100.00
71774;BME280;59607;52.130;5.430;2023-04-28T10:58:47;101076.84;;;14.21;100.00
71774;BME280;59607;52.130;5.430;2023-04-28T11:04:08;101069.31;;;14.33;100.00
71774;BME280;59607;52.130;5.430;2023-04-28T11:06:45;101077.66;;;14.52;100.00
71774;BME280;59607;52.130;5.430;2023-04-28T11:12:08;101066.31;;;14.51;100.00
71774;BME280;59607;52.130;5.430;2023-04-28T11:14:39;101071.31;;;14.46;100.00
71774;BME280;59607;52.130;5.430;2023-04-28T11:17:39;101074.50;;;14.41;100.00
71774;BME280;59607;52.130;5.430;2023-04-28T11:20:11;101068.78;;;14.38;100.00
71774;BME280;59607;52.130;5.430;2023-04-28T11:22:39;101064.50;;;14.22;100.00
71774;BME280;59607;52.130;5.430;2023-04-28T11:25:16;101068.50;;;14.17;100.00
71774;BME280;59607;52.130;5.430;2023-04-28T11:27:42;101065.88;;;14.17;100.00
71774;BME280;59607;52.130;5.430;2023-04-28T11:30:19;101058.84;;;14.25;100.00
71774;BME280;59607;52.130;5.430;2023-04-28T11:32:49;101066.31;;;14.21;100.00
71774;BME280;59607;52.130;5.430;2023-04-28T11:35:22;101059.03;;;14.23;100.00
71774;BME280;59607;52.130;5.430;2023-04-28T11:38:02;101054.03;;;14.43;100.00
71774;BME280;59607;52.130;5.430;2023-04-28T11:40:29;101053.44;;;14.63;100.00
71774;BME280;59607;52.130;5.430;2023-04-28T11:42:59;101057.56;;;14.66;100.00
71774;BME280;59607;52.130;5.430;2023-04-28T11:45:30;101058.13;;;14.61;100.00
71774;BME280;59607;52.130;5.430;2023-04-28T11:48:20;101058.31;;;14.60;100.00
71774;BME280;59607;52.130;5.430;2023-04-28T11:50:49;101059.56;;;14.49;100.00
71774;BME280;59607;52.130;5.430;2023-04-28T11:53:16;101059.03;;;14.38;100.00
71774;BME280;59607;52.130;5.430;2023-04-28T11:55:48;101065.41;;;14.29;100.00
71774;BME280;59607;52.130;5.430;2023-04-28T11:58:20;101066.88;;;14.31;100.00
71774;BME280;59607;52.130;5.430;2023-04-28T12:01:15;101069.41;;;14.25;100.00
71774;BME280;59607;52.130;5.430;2023-04-28T12:03:46;101063.84;;;14.19;100.00
71774;BME280;59607;52.130;5.430;2023-04-28T12:06:32;101069.22;;;14.26;100.00
71774;BME280;59607;52.130;5.430;2023-04-28T12:08:59;101067.03;;;14.30;100.00
71774;BME280;59607;52.130;5.430;2023-04-28T12:11:29;101068.41;;;14.41;100.00
71774;BME280;59607;52.130;5.430;2023-04-28T12:14:03;101061.94;;;14.59;100.00
71774;BME280;59607;52.130;5.430;2023-04-28T12:16:40;101061.47;;;14.85;100.00
71774;BME280;59607;52.130;5.430;2023-04-28T12:19:11;101069.13;;;14.80;100.00
71774;BME280;59607;52.130;5.430;2023-04-28T12:21:38;101059.56;;;14.64;100.00
71774;BME280;59607;52.130;5.430;2023-04-28T12:24:18;101068.41;;;14.56;100.00
71774;BME280;59607;52.130;5.430;2023-04-28T12:27:20;101075.31;;;14.57;100.00
71774;BME280;59607;52.130;5.430;2023-04-28T12:29:47;101073.13;;;14.76;100.00
71774;BME280;59607;52.130;5.430;2023-04-28T12:32:16;101070.09;;;14.94;100.00
71774;BME280;59607;52.130;5.430;2023-04-28T12:34:49;101066.47;;;14.95;100.00
71774;BME280;59607;52.130;5.430;2023-04-28T12:37:19;101075.50;;;14.86;100.00
71774;BME280;59607;52.130;5.430;2023-04-28T12:39:47;101068.31;;;14.64;100.00
71774;BME280;59607;52.130;5.430;2023-04-28T12:42:18;101081.69;;;14.48;100.00
71774;BME280;59607;52.130;5.430;2023-04-28T12:44:44;101076.13;;;14.42;100.00
71774;BME280;59607;52.130;5.430;2023-04-28T12:47:17;101076.78;;;14.44;100.00
71774;BME280;59607;52.130;5.430;2023-04-28T12:49:46;101074.66;;;14.55;100.00
71774;BME280;59607;52.130;5.430;2023-04-28T12:52:18;101078.22;;;14.62;100.00
71774;BME280;59607;52.130;5.430;2023-04-28T12:54:45;101069.75;;;14.82;100.00
71774;BME280;59607;52.130;5.430;2023-04-28T12:57:20;101073.81;;;15.00;100.00
71774;BME280;59607;52.130;5.430;2023-04-28T12:59:49;101075.44;;;15.01;100.00
71774;BME280;59607;52.130;5.430;2023-04-28T13:02:19;101072.81;;;15.01;100.00
71774;BME280;59607;52.130;5.430;2023-04-28T13:04:51;101076.28;;;14.86;100.00
71774;BME280;59607;52.130;5.430;2023-04-28T13:07:18;101069.00;;;14.73;100.00
71774;BME280;59607;52.130;5.430;2023-04-28T13:09:49;101075.56;;;14.92;100.00
71774;BME280;59607;52.130;5.430;2023-04-28T13:12:15;101076.28;;;15.01;100.00
71774;BME280;59607;52.130;5.430;2023-04-28T13:14:42;101073.53;;;15.10;100.00
71774;BME280;59607;52.130;5.430;2023-04-28T13:17:11;101076.34;;;15.08;100.00
71774;BME280;59607;52.130;5.430;2023-04-28T13:19:41;101077.34;;;15.07;100.00
71774;BME280;59607;52.130;5.430;2023-04-28T13:22:12;101073.19;;;14.98;100.00
71774;BME280;59607;52.130;5.430;2023-04-28T13:24:44;101075.22;;;14.80;100.00
71774;BME280;59607;52.130;5.430;2023-04-28T13:27:13;101079.84;;;14.78;100.00
71774;BME280;59607;52.130;5.430;2023-04-28T13:29:40;101070.84;;;14.73;100.00